sensor_id;sensor_type;location;lat;lon;timestamp;temperature;humidity
12682;DHT22;6405;59.208;18.216;2023-09-30T00:00:26;14.60;99.90
12682;DHT22;6405;59.208;18.216;2023-09-30T00:02:52;14.60;99.90
12682;DHT22;6405;59.208;18.216;2023-09-30T00:05:17;14.60;99.90
12682;DHT22;6405;59.208;18.216;2023-09-30T00:07:46;14.60;99.90
12682;DHT22;6405;59.208;18.216;2023-09-30T00:10:11;14.60;99.90
12682;DHT22;6405;59.208;18.216;2023-09-30T00:12:37;14.70;99.90
12682;DHT22;6405;59.208;18.216;2023-09-30T00:15:04;14.70;99.90
12682;DHT22;6405;59.208;18.216;2023-09-30T00:17:30;14.70;99.90
12682;DHT22;6405;59.208;18.216;2023-09-30T00:19:55;14.70;99.90
12682;DHT22;6405;59.208;18.216;2023-09-30T00:22:21;14.70;99.90
12682;DHT22;6405;59.208;18.216;2023-09-30T00:24:47;14.70;99.90
12682;DHT22;6405;59.208;18.216;2023-09-30T00:27:13;14.70;99.90
12682;DHT22;6405;59.208;18.216;2023-09-30T00:29:39;14.70;99.90
12682;DHT22;6405;59.208;18.216;2023-09-30T00:32:05;14.70;99.90
12682;DHT22;6405;59.208;18.216;2023-09-30T00:34:34;14.80;99.90
12682;DHT22;6405;59.208;18.216;2023-09-30T00:37:00;14.80;99.90
12682;DHT22;6405;59.208;18.216;2023-09-30T00:39:26;14.80;99.90
12682;DHT22;6405;59.208;18.216;2023-09-30T00:41:57;14.80;99.90
12682;DHT22;6405;59.208;18.216;2023-09-30T00:44:25;14.80;99.90
12682;DHT22;6405;59.208;18.216;2023-09-30T00:46:50;14.80;99.90
12682;DHT22;6405;59.208;18.216;2023-09-30T00:49:16;14.80;99.90
12682;DHT22;6405;59.208;18.216;2023-09-30T00:51:46;14.80;99.90
12682;DHT22;6405;59.208;18.216;2023-09-30T00:54:12;14.80;99.90
12682;DHT22;6405;59.208;18.216;2023-09-30T00:56:44;14.80;99.90
12682;DHT22;6405;59.208;18.216;2023-09-30T00:59:11;14.80;99.90
12682;DHT22;6405;59.208;18.216;2023-09-30T01:01:36;14.80;99.90
12682;DHT22;6405;59.208;18.216;2023-09-30T01:04:03;14.90;99.90
12682;DHT22;6405;59.208;18.216;2023-09-30T01:06:29;14.90;99.90
12682;DHT22;6405;59.208;18.216;2023-09-30T01:08:55;14.90;99.90
12682;DHT22;6405;59.208;18.216;2023-09-30T01:11:21;14.90;99.90
12682;DHT22;6405;59.208;18.216;2023-09-30T01:13:47;14.90;99.90
12682;DHT22;6405;59.208;18.216;2023-09-30T01:16:13;14.90;99.90
12682;DHT22;6405;59.208;18.216;2023-09-30T01:18:40;14.90;99.90
12682;DHT22;6405;59.208;18.216;2023-09-30T01:21:08;14.90;99.90
12682;DHT22;6405;59.208;18.216;2023-09-30T01:23:35;14.80;99.90
12682;DHT22;6405;59.208;18.216;2023-09-30T01:26:08;14.90;99.90
12682;DHT22;6405;59.208;18.216;2023-09-30T01:28:35;14.80;99.90
12682;DHT22;6405;59.208;18.216;2023-09-30T01:31:01;14.80;99.90
12682;DHT22;6405;59.208;18.216;2023-09-30T01:33:27;14.80;99.90
12682;DHT22;6405;59.208;18.216;2023-09-30T01:35:54;14.80;99.90
12682;DHT22;6405;59.208;18.216;2023-09-30T01:38:20;14.80;99.90
12682;DHT22;6405;59.208;18.216;2023-09-30T01:40:46;14.80;99.90
12682;DHT22;6405;59.208;18.216;2023-09-30T01:43:13;14.80;99.90
12682;DHT22;6405;59.208;18.216;2023-09-30T01:45:39;14.80;99.90
12682;DHT22;6405;59.208;18.216;2023-09-30T01:48:06;14.70;99.90
12682;DHT22;6405;59.208;18.216;2023-09-30T01:50:31;14.70;99.90
12682;DHT22;6405;59.208;18.216;2023-09-30T01:52:57;14.70;99.90
12682;DHT22;6405;59.208;18.216;2023-09-30T01:55:23;14.70;99.90
12682;DHT22;6405;59.208;18.216;2023-09-30T01:57:48;14.70;99.90
12682;DHT22;6405;59.208;18.216;2023-09-30T02:00:14;14.60;99.90
12682;DHT22;6405;59.208;18.216;2023-09-30T02:02:40;14.50;99.90
12682;DHT22;6405;59.208;18.216;2023-09-30T02:05:07;14.50;99.90
12682;DHT22;6405;59.208;18.216;2023-09-30T02:07:36;14.40;99.90
12682;DHT22;6405;59.208;18.216;2023-09-30T02:10:02;14.30;99.90
12682;DHT22;6405;59.208;18.216;2023-09-30T02:12:28;14.20;99.90
12682;DHT22;6405;59.208;18.216;2023-09-30T02:14:54;14.20;99.90
12682;DHT22;6405;59.208;18.216;2023-09-30T02:17:20;14.10;99.90
12682;DHT22;6405;59.208;18.216;2023-09-30T02:19:46;14.00;99.90
12682;DHT22;6405;59.208;18.216;2023-09-30T02:22:12;13.90;99.90
12682;DHT22;6405;59.208;18.216;2023-09-30T02:24:38;13.80;99.90
12682;DHT22;6405;59.208;18.216;2023-09-30T02:27:05;13.70;99.90
12682;DHT22;6405;59.208;18.216;2023-09-30T02:29:31;13.60;99.90
12682;DHT22;6405;59.208;18.216;2023-09-30T02:31:57;13.50;99.90
12682;DHT22;6405;59.208;18.216;2023-09-30T02:34:23;13.40;99.90
12682;DHT22;6405;59.208;18.216;2023-09-30T02:36:49;13.40;99.90
12682;DHT22;6405;59.208;18.216;2023-09-30T02:39:15;13.30;99.90
12682;DHT22;6405;59.208;18.216;2023-09-30T02:41:42;13.30;99.90
12682;DHT22;6405;59.208;18.216;2023-09-30T02:44:08;13.20;99.90
12682;DHT22;6405;59.208;18.216;2023-09-30T02:46:34;13.20;99.90
12682;DHT22;6405;59.208;18.216;2023-09-30T02:49:03;13.10;99.90
12682;DHT22;6405;59.208;18.216;2023-09-30T02:51:28;13.10;99.90
12682;DHT22;6405;59.208;18.216;2023-09-30T02:53:55;13.10;99.90
12682;DHT22;6405;59.208;18.216;2023-09-30T02:56:21;13.10;99.90
12682;DHT22;6405;59.208;18.216;2023-09-30T02:58:52;13.10;99.90
12682;DHT22;6405;59.208;18.216;2023-09-30T03:01:18;13.10;99.90
12682;DHT22;6405;59.208;18.216;2023-09-30T03:03:44;13.10;99.90
12682;DHT22;6405;59.208;18.216;2023-09-30T03:06:10;13.00;99.90
12682;DHT22;6405;59.208;18.216;2023-09-30T03:08:37;13.00;99.90
12682;DHT22;6405;59.208;18.216;2023-09-30T03:11:03;12.90;99.90
12682;DHT22;6405;59.208;18.216;2023-09-30T03:13:30;12.90;99.90
12682;DHT22;6405;59.208;18.216;2023-09-30T03:15:56;12.90;99.90
12682;DHT22;6405;59.208;18.216;2023-09-30T03:18:22;12.80;99.90
12682;DHT22;6405;59.208;18.216;2023-09-30T03:20:57;12.80;99.90
12682;DHT22;6405;59.208;18.216;2023-09-30T03:23:26;12.80;99.90
12682;DHT22;6405;59.208;18.216;2023-09-30T03:25:59;12.80;99.90
12682;DHT22;6405;59.208;18.216;2023-09-30T03:28:28;12.80;99.90
12682;DHT22;6405;59.208;18.216;2023-09-30T03:30:54;12.80;99.90
12682;DHT22;6405;59.208;18.216;2023-09-30T03:33:22;12.70;99.90
12682;DHT22;6405;59.208;18.216;2023-09-30T03:35:47;12.70;99.90
12682;DHT22;6405;59.208;18.216;2023-09-30T03:38:13;12.70;99.90
12682;DHT22;6405;59.208;18.216;2023-09-30T03:40:42;12.70;99.90
12682;DHT22;6405;59.208;18.216;2023-09-30T03:43:15;12.70;99.90
12682;DHT22;6405;59.208;18.216;2023-09-30T03:45:41;12.70;99.90
12682;DHT22;6405;59.208;18.216;2023-09-30T03:48:07;12.70;99.90
12682;DHT22;6405;59.208;18.216;2023-09-30T03:50:33;12.70;99.90
12682;DHT22;6405;59.208;18.216;2023-09-30T03:53:03;12.80;99.90
12682;DHT22;6405;59.208;18.216;2023-09-30T03:55:30;12.80;99.90
12682;DHT22;6405;59.208;18.216;2023-09-30T03:57:57;12.80;99.90
12682;DHT22;6405;59.208;18.216;2023-09-30T04:00:23;12.80;99.90
12682;DHT22;6405;59.208;18.216;2023-09-30T04:02:50;12.80;99.90
12682;DHT22;6405;59.208;18.216;2023-09-30T04:05:20;12.80;99.90
12682;DHT22;6405;59.208;18.216;2023-09-30T04:07:49;12.80;99.90
12682;DHT22;6405;59.208;18.216;2023-09-30T04:10:16;12.80;99.90
12682;DHT22;6405;59.208;18.216;2023-09-30T04:12:42;12.80;99.90
12682;DHT22;6405;59.208;18.216;2023-09-30T04:15:08;12.70;99.90
12682;DHT22;6405;59.208;18.216;2023-09-30T04:17:37;12.70;99.90
12682;DHT22;6405;59.208;18.216;2023-09-30T04:20:06;12.60;99.90
12682;DHT22;6405;59.208;18.216;2023-09-30T04:22:34;12.60;99.90
12682;DHT22;6405;59.208;18.216;2023-09-30T04:25:00;12.60;99.90
12682;DHT22;6405;59.208;18.216;2023-09-30T04:27:26;12.60;99.90
12682;DHT22;6405;59.208;18.216;2023-09-30T04:29:52;12.50;99.90
12682;DHT22;6405;59.208;18.216;2023-09-30T04:32:19;12.50;99.90
12682;DHT22;6405;59.208;18.216;2023-09-30T04:34:45;12.50;99.90
12682;DHT22;6405;59.208;18.216;2023-09-30T04:37:12;12.50;99.90
12682;DHT22;6405;59.208;18.216;2023-09-30T04:39:39;12.40;99.90
12682;DHT22;6405;59.208;18.216;2023-09-30T04:42:05;12.40;99.90
12682;DHT22;6405;59.208;18.216;2023-09-30T04:44:30;12.40;99.90
12682;DHT22;6405;59.208;18.216;2023-09-30T04:46:57;12.30;99.90
12682;DHT22;6405;59.208;18.216;2023-09-30T04:49:24;12.30;99.90
12682;DHT22;6405;59.208;18.216;2023-09-30T04:51:50;12.20;99.90
12682;DHT22;6405;59.208;18.216;2023-09-30T04:54:15;12.10;99.90
12682;DHT22;6405;59.208;18.216;2023-09-30T04:56:41;12.10;99.90
12682;DHT22;6405;59.208;18.216;2023-09-30T04:59:07;12.00;99.90
12682;DHT22;6405;59.208;18.216;2023-09-30T05:01:32;12.00;99.90
12682;DHT22;6405;59.208;18.216;2023-09-30T05:03:58;11.90;99.90
12682;DHT22;6405;59.208;18.216;2023-09-30T05:06:24;11.90;99.90
12682;DHT22;6405;59.208;18.216;2023-09-30T05:08:50;11.90;99.90
12682;DHT22;6405;59.208;18.216;2023-09-30T05:11:16;11.80;99.90
12682;DHT22;6405;59.208;18.216;2023-09-30T05:13:42;11.80;99.90
12682;DHT22;6405;59.208;18.216;2023-09-30T05:16:07;11.70;99.90
12682;DHT22;6405;59.208;18.216;2023-09-30T05:18:33;11.70;99.90
12682;DHT22;6405;59.208;18.216;2023-09-30T05:20:59;11.70;99.90
12682;DHT22;6405;59.208;18.216;2023-09-30T05:23:26;11.70;99.90
12682;DHT22;6405;59.208;18.216;2023-09-30T05:25:51;11.60;99.90
12682;DHT22;6405;59.208;18.216;2023-09-30T05:28:20;11.60;99.90
12682;DHT22;6405;59.208;18.216;2023-09-30T05:30:46;11.60;99.90
12682;DHT22;6405;59.208;18.216;2023-09-30T05:33:12;11.60;99.90
12682;DHT22;6405;59.208;18.216;2023-09-30T05:35:42;11.70;99.90
12682;DHT22;6405;59.208;18.216;2023-09-30T05:38:08;11.60;99.90
12682;DHT22;6405;59.208;18.216;2023-09-30T05:40:34;11.60;99.90
12682;DHT22;6405;59.208;18.216;2023-09-30T05:43:00;11.60;99.90
12682;DHT22;6405;59.208;18.216;2023-09-30T05:45:27;11.60;99.90
12682;DHT22;6405;59.208;18.216;2023-09-30T05:47:56;11.60;99.90
12682;DHT22;6405;59.208;18.216;2023-09-30T05:50:24;11.70;99.90
12682;DHT22;6405;59.208;18.216;2023-09-30T05:52:55;11.60;99.90
12682;DHT22;6405;59.208;18.216;2023-09-30T05:55:21;11.60;99.90
12682;DHT22;6405;59.208;18.216;2023-09-30T05:57:51;11.70;99.90
12682;DHT22;6405;59.208;18.216;2023-09-30T06:00:18;11.70;99.90
12682;DHT22;6405;59.208;18.216;2023-09-30T06:02:59;11.70;99.90
12682;DHT22;6405;59.208;18.216;2023-09-30T06:05:25;11.80;99.90
12682;DHT22;6405;59.208;18.216;2023-09-30T06:07:55;11.80;99.90
12682;DHT22;6405;59.208;18.216;2023-09-30T06:10:21;11.90;99.90
12682;DHT22;6405;59.208;18.216;2023-09-30T06:12:50;12.00;99.90
12682;DHT22;6405;59.208;18.216;2023-09-30T06:15:20;12.10;99.90
12682;DHT22;6405;59.208;18.216;2023-09-30T06:17:49;12.10;99.90
12682;DHT22;6405;59.208;18.216;2023-09-30T06:20:14;12.20;99.90
12682;DHT22;6405;59.208;18.216;2023-09-30T06:22:44;12.20;99.90
12682;DHT22;6405;59.208;18.216;2023-09-30T06:25:17;12.30;99.90
12682;DHT22;6405;59.208;18.216;2023-09-30T06:27:47;12.40;99.90
12682;DHT22;6405;59.208;18.216;2023-09-30T06:30:14;12.40;99.90
12682;DHT22;6405;59.208;18.216;2023-09-30T06:32:41;12.40;99.90
12682;DHT22;6405;59.208;18.216;2023-09-30T06:35:08;12.50;99.90
12682;DHT22;6405;59.208;18.216;2023-09-30T06:37:39;12.50;99.90
12682;DHT22;6405;59.208;18.216;2023-09-30T06:40:06;12.50;99.90
12682;DHT22;6405;59.208;18.216;2023-09-30T06:42:36;12.50;99.90
12682;DHT22;6405;59.208;18.216;2023-09-30T06:45:03;12.40;99.90
12682;DHT22;6405;59.208;18.216;2023-09-30T06:47:35;12.40;99.90
12682;DHT22;6405;59.208;18.216;2023-09-30T06:50:02;12.40;99.90
12682;DHT22;6405;59.208;18.216;2023-09-30T06:52:34;12.30;99.90
12682;DHT22;6405;59.208;18.216;2023-09-30T06:55:01;12.30;99.90
12682;DHT22;6405;59.208;18.216;2023-09-30T06:57:27;12.30;99.90
12682;DHT22;6405;59.208;18.216;2023-09-30T06:59:52;12.40;99.90
12682;DHT22;6405;59.208;18.216;2023-09-30T07:02:18;12.40;99.90
12682;DHT22;6405;59.208;18.216;2023-09-30T07:04:44;12.40;99.90
12682;DHT22;6405;59.208;18.216;2023-09-30T07:07:09;12.50;99.90
12682;DHT22;6405;59.208;18.216;2023-09-30T07:09:35;12.60;99.90
12682;DHT22;6405;59.208;18.216;2023-09-30T07:12:01;12.60;99.90
12682;DHT22;6405;59.208;18.216;2023-09-30T07:14:27;12.70;99.90
12682;DHT22;6405;59.208;18.216;2023-09-30T07:16:53;12.80;99.90
12682;DHT22;6405;59.208;18.216;2023-09-30T07:19:19;12.80;99.90
12682;DHT22;6405;59.208;18.216;2023-09-30T07:21:45;12.90;99.90
12682;DHT22;6405;59.208;18.216;2023-09-30T07:24:12;12.90;99.90
12682;DHT22;6405;59.208;18.216;2023-09-30T07:26:37;12.90;99.90
12682;DHT22;6405;59.208;18.216;2023-09-30T07:29:03;12.90;99.90
12682;DHT22;6405;59.208;18.216;2023-09-30T07:31:34;12.80;99.90
12682;DHT22;6405;59.208;18.216;2023-09-30T07:34:00;12.90;99.90
12682;DHT22;6405;59.208;18.216;2023-09-30T07:36:26;12.90;99.90
12682;DHT22;6405;59.208;18.216;2023-09-30T07:38:52;12.90;99.90
12682;DHT22;6405;59.208;18.216;2023-09-30T07:41:18;12.90;99.90
12682;DHT22;6405;59.208;18.216;2023-09-30T07:43:44;12.90;99.90
12682;DHT22;6405;59.208;18.216;2023-09-30T07:46:09;12.90;99.90
12682;DHT22;6405;59.208;18.216;2023-09-30T07:48:35;13.00;99.90
12682;DHT22;6405;59.208;18.216;2023-09-30T07:51:01;13.10;99.90
12682;DHT22;6405;59.208;18.216;2023-09-30T07:53:27;13.10;99.90
12682;DHT22;6405;59.208;18.216;2023-09-30T07:55:53;13.20;99.90
12682;DHT22;6405;59.208;18.216;2023-09-30T07:58:20;13.20;99.90
12682;DHT22;6405;59.208;18.216;2023-09-30T08:00:46;13.20;99.90
12682;DHT22;6405;59.208;18.216;2023-09-30T08:03:11;13.30;99.90
12682;DHT22;6405;59.208;18.216;2023-09-30T08:05:38;13.40;99.90
12682;DHT22;6405;59.208;18.216;2023-09-30T08:08:04;13.40;99.90
12682;DHT22;6405;59.208;18.216;2023-09-30T08:10:31;13.50;99.90
12682;DHT22;6405;59.208;18.216;2023-09-30T08:12:57;13.40;99.90
12682;DHT22;6405;59.208;18.216;2023-09-30T08:15:26;13.50;99.90
12682;DHT22;6405;59.208;18.216;2023-09-30T08:17:52;13.70;99.90
12682;DHT22;6405;59.208;18.216;2023-09-30T08:20:17;13.70;99.90
12682;DHT22;6405;59.208;18.216;2023-09-30T08:22:44;13.70;99.90
12682;DHT22;6405;59.208;18.216;2023-09-30T08:25:10;13.80;99.90
12682;DHT22;6405;59.208;18.216;2023-09-30T08:27:37;13.80;99.90
12682;DHT22;6405;59.208;18.216;2023-09-30T08:30:04;13.90;99.90
12682;DHT22;6405;59.208;18.216;2023-09-30T08:32:35;13.90;99.90
12682;DHT22;6405;59.208;18.216;2023-09-30T08:35:02;14.00;99.90
12682;DHT22;6405;59.208;18.216;2023-09-30T08:37:29;14.10;99.90
12682;DHT22;6405;59.208;18.216;2023-09-30T08:39:55;14.20;99.90
12682;DHT22;6405;59.208;18.216;2023-09-30T08:42:22;14.20;99.90
12682;DHT22;6405;59.208;18.216;2023-09-30T08:44:53;14.30;99.90
12682;DHT22;6405;59.208;18.216;2023-09-30T08:47:21;14.30;99.90
12682;DHT22;6405;59.208;18.216;2023-09-30T08:49:49;14.30;99.90
12682;DHT22;6405;59.208;18.216;2023-09-30T08:52:16;14.30;99.90
12682;DHT22;6405;59.208;18.216;2023-09-30T08:54:42;14.40;99.90
12682;DHT22;6405;59.208;18.216;2023-09-30T08:57:12;14.50;99.90
12682;DHT22;6405;59.208;18.216;2023-09-30T08:59:41;14.50;99.90
12682;DHT22;6405;59.208;18.216;2023-09-30T09:02:08;14.50;99.90
12682;DHT22;6405;59.208;18.216;2023-09-30T09:04:36;14.50;99.90
12682;DHT22;6405;59.208;18.216;2023-09-30T09:07:02;14.60;99.90
12682;DHT22;6405;59.208;18.216;2023-09-30T09:09:28;14.70;99.90
12682;DHT22;6405;59.208;18.216;2023-09-30T09:11:54;14.80;99.90
12682;DHT22;6405;59.208;18.216;2023-09-30T09:14:39;14.90;99.90
12682;DHT22;6405;59.208;18.216;2023-09-30T09:17:07;14.90;99.90
12682;DHT22;6405;59.208;18.216;2023-09-30T09:19:40;14.90;99.90
12682;DHT22;6405;59.208;18.216;2023-09-30T09:22:06;15.00;99.90
12682;DHT22;6405;59.208;18.216;2023-09-30T09:24:34;15.00;99.90
12682;DHT22;6405;59.208;18.216;2023-09-30T09:27:12;15.00;99.90
12682;DHT22;6405;59.208;18.216;2023-09-30T09:29:39;15.00;99.90
12682;DHT22;6405;59.208;18.216;2023-09-30T09:32:17;15.00;99.90
12682;DHT22;6405;59.208;18.216;2023-09-30T09:34:44;15.00;99.90
12682;DHT22;6405;59.208;18.216;2023-09-30T09:39:50;15.30;99.90
12682;DHT22;6405;59.208;18.216;2023-09-30T09:42:28;15.40;99.90
12682;DHT22;6405;59.208;18.216;2023-09-30T09:45:04;15.40;99.90
12682;DHT22;6405;59.208;18.216;2023-09-30T09:47:32;15.50;99.90
12682;DHT22;6405;59.208;18.216;2023-09-30T09:49:58;15.50;99.90
12682;DHT22;6405;59.208;18.216;2023-09-30T09:52:25;15.60;99.90
12682;DHT22;6405;59.208;18.216;2023-09-30T09:54:52;15.60;99.90
12682;DHT22;6405;59.208;18.216;2023-09-30T09:57:19;15.60;99.90
12682;DHT22;6405;59.208;18.216;2023-09-30T09:59:45;15.70;99.90
12682;DHT22;6405;59.208;18.216;2023-09-30T10:02:15;15.80;99.90
12682;DHT22;6405;59.208;18.216;2023-09-30T10:04:46;16.00;99.90
12682;DHT22;6405;59.208;18.216;2023-09-30T10:07:21;16.20;99.90
12682;DHT22;6405;59.208;18.216;2023-09-30T10:09:50;16.20;99.90
12682;DHT22;6405;59.208;18.216;2023-09-30T10:12:18;16.20;99.90
12682;DHT22;6405;59.208;18.216;2023-09-30T10:14:44;16.10;99.90
12682;DHT22;6405;59.208;18.216;2023-09-30T10:17:11;16.10;99.90
12682;DHT22;6405;59.208;18.216;2023-09-30T10:20:03;16.10;99.90
12682;DHT22;6405;59.208;18.216;2023-09-30T10:22:30;16.20;99.90
12682;DHT22;6405;59.208;18.216;2023-09-30T10:24:58;16.10;99.90
12682;DHT22;6405;59.208;18.216;2023-09-30T10:29:58;16.10;99.90
12682;DHT22;6405;59.208;18.216;2023-09-30T10:35:16;16.00;99.90
12682;DHT22;6405;59.208;18.216;2023-09-30T10:37:43;16.00;99.90
12682;DHT22;6405;59.208;18.216;2023-09-30T10:40:10;16.00;99.90
12682;DHT22;6405;59.208;18.216;2023-09-30T10:42:48;16.00;99.90
12682;DHT22;6405;59.208;18.216;2023-09-30T10:50:58;15.80;99.90
12682;DHT22;6405;59.208;18.216;2023-09-30T10:53:30;15.70;99.90
12682;DHT22;6405;59.208;18.216;2023-09-30T10:56:00;15.80;99.90
12682;DHT22;6405;59.208;18.216;2023-09-30T10:58:45;16.00;99.90
12682;DHT22;6405;59.208;18.216;2023-09-30T11:01:12;16.10;99.90
12682;DHT22;6405;59.208;18.216;2023-09-30T11:03:40;16.00;99.90
12682;DHT22;6405;59.208;18.216;2023-09-30T11:06:06;16.00;99.90
12682;DHT22;6405;59.208;18.216;2023-09-30T11:08:32;15.80;99.90
12682;DHT22;6405;59.208;18.216;2023-09-30T11:10:58;15.40;99.90
12682;DHT22;6405;59.208;18.216;2023-09-30T11:13:32;15.20;99.90
12682;DHT22;6405;59.208;18.216;2023-09-30T11:16:04;14.90;99.90
12682;DHT22;6405;59.208;18.216;2023-09-30T11:18:31;14.80;99.90
12682;DHT22;6405;59.208;18.216;2023-09-30T11:21:10;14.60;99.90
12682;DHT22;6405;59.208;18.216;2023-09-30T11:23:39;14.50;99.90
12682;DHT22;6405;59.208;18.216;2023-09-30T11:26:06;14.50;99.90
12682;DHT22;6405;59.208;18.216;2023-09-30T11:28:39;14.40;99.90
12682;DHT22;6405;59.208;18.216;2023-09-30T11:31:08;14.40;99.90
12682;DHT22;6405;59.208;18.216;2023-09-30T11:33:55;14.40;99.90
12682;DHT22;6405;59.208;18.216;2023-09-30T11:36:23;14.40;99.90
12682;DHT22;6405;59.208;18.216;2023-09-30T11:38:50;14.50;99.90
12682;DHT22;6405;59.208;18.216;2023-09-30T11:41:17;14.70;99.90
12682;DHT22;6405;59.208;18.216;2023-09-30T11:44:10;15.00;99.90
12682;DHT22;6405;59.208;18.216;2023-09-30T11:46:56;15.20;99.90
12682;DHT22;6405;59.208;18.216;2023-09-30T11:49:27;15.30;99.90
12682;DHT22;6405;59.208;18.216;2023-09-30T11:51:54;15.40;99.90
12682;DHT22;6405;59.208;18.216;2023-09-30T11:54:19;15.40;99.90
12682;DHT22;6405;59.208;18.216;2023-09-30T11:56:47;15.50;99.90
12682;DHT22;6405;59.208;18.216;2023-09-30T11:59:13;15.70;99.90
12682;DHT22;6405;59.208;18.216;2023-09-30T12:01:39;15.80;99.90
12682;DHT22;6405;59.208;18.216;2023-09-30T12:04:05;15.80;99.90
12682;DHT22;6405;59.208;18.216;2023-09-30T12:06:32;15.80;99.90
12682;DHT22;6405;59.208;18.216;2023-09-30T12:08:59;15.90;99.90
12682;DHT22;6405;59.208;18.216;2023-09-30T12:11:25;16.00;99.90
12682;DHT22;6405;59.208;18.216;2023-09-30T12:13:51;16.10;99.90
12682;DHT22;6405;59.208;18.216;2023-09-30T12:16:17;16.10;99.90
12682;DHT22;6405;59.208;18.216;2023-09-30T12:18:44;16.10;99.90
12682;DHT22;6405;59.208;18.216;2023-09-30T12:21:10;16.10;99.90
12682;DHT22;6405;59.208;18.216;2023-09-30T12:23:37;16.00;99.90
12682;DHT22;6405;59.208;18.216;2023-09-30T12:26:03;16.00;99.90
12682;DHT22;6405;59.208;18.216;2023-09-30T12:28:33;15.90;99.90
12682;DHT22;6405;59.208;18.216;2023-09-30T12:31:00;16.20;99.90
12682;DHT22;6405;59.208;18.216;2023-09-30T12:33:30;16.10;99.90
12682;DHT22;6405;59.208;18.216;2023-09-30T12:35:57;16.10;99.90
12682;DHT22;6405;59.208;18.216;2023-09-30T12:38:24;16.10;99.90
12682;DHT22;6405;59.208;18.216;2023-09-30T12:40:52;16.20;99.90
12682;DHT22;6405;59.208;18.216;2023-09-30T12:43:19;16.20;99.90
12682;DHT22;6405;59.208;18.216;2023-09-30T12:45:45;16.20;99.90
12682;DHT22;6405;59.208;18.216;2023-09-30T12:48:11;16.00;99.90
12682;DHT22;6405;59.208;18.216;2023-09-30T12:50:37;16.00;99.90
12682;DHT22;6405;59.208;18.216;2023-09-30T12:53:03;15.90;99.90
12682;DHT22;6405;59.208;18.216;2023-09-30T12:55:28;15.80;99.90
12682;DHT22;6405;59.208;18.216;2023-09-30T12:57:54;15.50;99.90
12682;DHT22;6405;59.208;18.216;2023-09-30T13:00:20;15.30;99.90
12682;DHT22;6405;59.208;18.216;2023-09-30T13:02:47;15.20;99.90
12682;DHT22;6405;59.208;18.216;2023-09-30T13:05:14;15.10;99.90
12682;DHT22;6405;59.208;18.216;2023-09-30T13:07:42;15.00;99.90
12682;DHT22;6405;59.208;18.216;2023-09-30T13:10:08;15.10;99.90
12682;DHT22;6405;59.208;18.216;2023-09-30T13:12:34;15.10;99.90
12682;DHT22;6405;59.208;18.216;2023-09-30T13:15:01;15.30;99.90
12682;DHT22;6405;59.208;18.216;2023-09-30T13:17:27;15.40;99.90
12682;DHT22;6405;59.208;18.216;2023-09-30T13:19:54;15.70;99.90
12682;DHT22;6405;59.208;18.216;2023-09-30T13:22:20;15.80;99.90
12682;DHT22;6405;59.208;18.216;2023-09-30T13:24:46;16.00;99.90
12682;DHT22;6405;59.208;18.216;2023-09-30T13:27:12;16.00;99.90
12682;DHT22;6405;59.208;18.216;2023-09-30T13:29:41;16.00;99.90
12682;DHT22;6405;59.208;18.216;2023-09-30T13:32:09;16.00;99.90
12682;DHT22;6405;59.208;18.216;2023-09-30T13:34:35;15.80;99.90
12682;DHT22;6405;59.208;18.216;2023-09-30T13:37:00;15.70;99.90
12682;DHT22;6405;59.208;18.216;2023-09-30T13:39:26;15.70;99.90
12682;DHT22;6405;59.208;18.216;2023-09-30T13:41:53;15.70;99.90
12682;DHT22;6405;59.208;18.216;2023-09-30T13:44:18;15.70;99.90
12682;DHT22;6405;59.208;18.216;2023-09-30T13:46:44;15.70;99.90
12682;DHT22;6405;59.208;18.216;2023-09-30T13:49:11;15.70;99.90
12682;DHT22;6405;59.208;18.216;2023-09-30T13:51:37;15.60;99.90
12682;DHT22;6405;59.208;18.216;2023-09-30T13:54:05;15.50;99.90
12682;DHT22;6405;59.208;18.216;2023-09-30T13:56:33;15.40;99.90
12682;DHT22;6405;59.208;18.216;2023-09-30T13:58:58;15.30;99.90
12682;DHT22;6405;59.208;18.216;2023-09-30T14:01:25;15.40;99.90
12682;DHT22;6405;59.208;18.216;2023-09-30T14:03:51;15.40;99.90
12682;DHT22;6405;59.208;18.216;2023-09-30T14:06:21;15.70;99.90
12682;DHT22;6405;59.208;18.216;2023-09-30T14:08:46;15.80;99.90
12682;DHT22;6405;59.208;18.216;2023-09-30T14:11:12;15.80;99.90
12682;DHT22;6405;59.208;18.216;2023-09-30T14:13:38;15.80;99.90
12682;DHT22;6405;59.208;18.216;2023-09-30T14:16:05;15.70;99.90
12682;DHT22;6405;59.208;18.216;2023-09-30T14:18:32;15.60;99.90
12682;DHT22;6405;59.208;18.216;2023-09-30T14:20:59;15.60;99.90
12682;DHT22;6405;59.208;18.216;2023-09-30T14:23:25;15.60;99.90
12682;DHT22;6405;59.208;18.216;2023-09-30T14:25:53;15.70;99.90
12682;DHT22;6405;59.208;18.216;2023-09-30T14:28:20;15.70;99.90
12682;DHT22;6405;59.208;18.216;2023-09-30T14:30:45;15.70;99.90
12682;DHT22;6405;59.208;18.216;2023-09-30T14:33:11;15.80;99.90
12682;DHT22;6405;59.208;18.216;2023-09-30T14:35:36;15.80;99.90
12682;DHT22;6405;59.208;18.216;2023-09-30T14:38:03;15.90;99.90
12682;DHT22;6405;59.208;18.216;2023-09-30T14:40:30;15.80;99.90
12682;DHT22;6405;59.208;18.216;2023-09-30T14:42:56;15.70;99.90
12682;DHT22;6405;59.208;18.216;2023-09-30T14:45:21;15.60;99.90
12682;DHT22;6405;59.208;18.216;2023-09-30T14:47:47;15.50;99.90
12682;DHT22;6405;59.208;18.216;2023-09-30T14:50:13;15.40;99.90
12682;DHT22;6405;59.208;18.216;2023-09-30T14:52:39;15.30;99.90
12682;DHT22;6405;59.208;18.216;2023-09-30T14:55:05;15.20;99.90
12682;DHT22;6405;59.208;18.216;2023-09-30T14:57:31;15.20;99.90
12682;DHT22;6405;59.208;18.216;2023-09-30T15:00:00;15.10;99.90
12682;DHT22;6405;59.208;18.216;2023-09-30T15:02:25;15.00;99.90
12682;DHT22;6405;59.208;18.216;2023-09-30T15:04:52;14.90;99.90
12682;DHT22;6405;59.208;18.216;2023-09-30T15:07:18;14.80;99.90
12682;DHT22;6405;59.208;18.216;2023-09-30T15:09:44;14.70;99.90
12682;DHT22;6405;59.208;18.216;2023-09-30T15:12:10;14.70;99.90
12682;DHT22;6405;59.208;18.216;2023-09-30T15:14:35;14.70;99.90
12682;DHT22;6405;59.208;18.216;2023-09-30T15:17:01;14.70;99.90
12682;DHT22;6405;59.208;18.216;2023-09-30T15:19:27;14.70;99.90
12682;DHT22;6405;59.208;18.216;2023-09-30T15:21:52;14.60;99.90
12682;DHT22;6405;59.208;18.216;2023-09-30T15:24:18;14.60;99.90
12682;DHT22;6405;59.208;18.216;2023-09-30T15:26:44;14.50;99.90
12682;DHT22;6405;59.208;18.216;2023-09-30T15:29:09;14.50;99.90
12682;DHT22;6405;59.208;18.216;2023-09-30T15:31:35;14.50;99.90
12682;DHT22;6405;59.208;18.216;2023-09-30T15:34:01;14.50;99.90
12682;DHT22;6405;59.208;18.216;2023-09-30T15:36:26;14.40;99.90
12682;DHT22;6405;59.208;18.216;2023-09-30T15:38:52;14.50;99.90
12682;DHT22;6405;59.208;18.216;2023-09-30T15:41:25;14.40;99.90
12682;DHT22;6405;59.208;18.216;2023-09-30T15:43:51;14.30;99.90